Enfield, NH

8:39 PM EDT on April 25, 2017 (GMT -0400)
Upper Connecticut River Valley | | Change Station

Elev 830 ft 43.64 °N, 72.14 °W | Updated 15 seconds ago

Mostly Cloudy
Mostly Cloudy
45.2 °F
Feels Like 43 °F
N
5.0
Wind Variable Wind from South

Today
High -- | Low -- °F
--% Chance of Precip.
Yesterday
High -- | Low -- °F
Precip. -- in
Pressure 30.16 in
Visibility 10.0 miles
Clouds Overcast 1400 ft
Windchill 43 °F
Dew Point 42 °F
Humidity 90%
Rainfall 0.20 in
Snow Depth Not available.
5:49 AM 7:44 PM
Waning Crescent, 0% visible
METAR KLEB 252353Z VRB05KT 10SM OVC014 09/07 A3016 RMK AO2 SLP213 60002 T00940072 10100 20089 56013
Pressure 30.16 in
Visibility 10.0 miles
Clouds Overcast 1400 ft
Windchill 43 °F
Dew Point 42 °F
Humidity 90%
Rainfall 0.20 in
Snow Depth Not available.
5:49 AM 7:44 PM
Waning Crescent, 0% visible
METAR KLEB 252353Z VRB05KT 10SM OVC014 09/07 A3016 RMK AO2 SLP213 60002 T00940072 10100 20089 56013

Get Severe Weather Alerts

Thanks for signing up!

Be on the lookout for a verification email in your inbox.

You'll start receiving the daily forecast at 8 AM.

×

10-Day Weather Forecast

Almanac

Astronomy

Apr. 25, 2017 Rise Set
Actual Time
Civil Twilight
Nautical Twilight
Astronomical Twilight
Moon
Length of Visible Light
Length of Day
Tomorrow will be .
, % of the Moon is Illuminated

Today's Extremes

State Highs State Lows

Community

WunderPhotos

WunderBlog® & News

Nearby

Air Quality

  Air Quality AQ Index Pollutant
Not available.

Snow Depth

Station Depth Elevation

Earthquake Activity

City Distance Mag. Time & Date
Minimum magnitude displayed is 2.5.

Coastal Water Temperatures

Place Temperature

Stations

Nearby Weather Stations

Station Location Temp. Windchill Dew Point Humidity Wind Precip. Elev Updated Type
                   

Watches & Warnings

There are currently no watches in effect.